Time,TemperatureF,DewpointF,PressureIn,WindDirection,WindDirectionDegrees,WindSpeedMPH,WindSpeedGustMPH,Humidity,HourlyPrecipIn,Conditions,Clouds,dailyrainin,SolarRadiationWatts/m^2,SoftwareType,DateUTC
2013-08-09 00:00:00,56.0,51.0,30.13,ENE,60,5.0,-999.0,83,-99.99,,,-99.99,0.170000,,2013-08-09 06:00:00,
2013-08-09 00:52:00,56.0,51.0,30.13,ENE,60,5.0,-999.0,83,-99.99,,,-99.99,0.170000,,2013-08-09 06:52:00,
2013-08-09 02:00:00,53.0,49.0,30.15,NE,53,5.0,-999.0,87,-99.99,,,-99.99,0.130000,,2013-08-09 08:00:00,
2013-08-09 02:53:00,53.0,49.0,30.15,NE,53,5.0,-999.0,87,-99.99,,,-99.99,0.130000,,2013-08-09 08:53:00,
2013-08-09 03:00:00,51.0,48.0,30.16,NE,56,3.0,-999.0,89,-99.99,,,-99.99,0.160000,,2013-08-09 09:00:00,
2013-08-09 03:52:00,51.0,48.0,30.16,NE,56,3.0,-999.0,89,-99.99,,,-99.99,0.160000,,2013-08-09 09:52:00,
2013-08-09 04:00:00,51.0,48.0,30.17,ENE,73,3.0,-999.0,89,-99.99,,,-99.99,0.130000,,2013-08-09 10:00:00,
2013-08-09 04:53:00,51.0,48.0,30.17,ENE,73,3.0,-999.0,89,-99.99,,,-99.99,0.130000,,2013-08-09 10:53:00,
2013-08-09 05:00:00,51.0,48.0,30.17,ENE,68,2.0,-999.0,90,-99.99,,,-99.99,0.110000,,2013-08-09 11:00:00,
2013-08-09 05:53:00,51.0,48.0,30.17,ENE,68,2.0,-999.0,90,-99.99,,,-99.99,0.110000,,2013-08-09 11:53:00,
2013-08-09 06:00:00,52.0,49.0,30.17,NE,48,2.0,-999.0,88,-99.99,,,-99.99,0.960000,,2013-08-09 12:00:00,
2013-08-09 06:52:00,52.0,49.0,30.17,NE,48,2.0,-999.0,88,-99.99,,,-99.99,0.960000,,2013-08-09 12:52:00,
2013-08-09 07:00:00,54.0,49.0,30.17,ENE,58,4.0,-999.0,83,-99.99,,,-99.99,51.400002,,2013-08-09 13:00:00,
2013-08-09 07:52:00,54.0,49.0,30.17,ENE,58,4.0,-999.0,83,-99.99,,,-99.99,51.400002,,2013-08-09 13:52:00,
2013-08-09 08:00:00,57.0,49.0,30.18,NE,52,7.0,-999.0,73,-99.99,,,-99.99,181.600006,,2013-08-09 14:00:00,
2013-08-09 08:53:00,57.0,49.0,30.18,NE,52,7.0,-999.0,73,-99.99,,,-99.99,181.600006,,2013-08-09 14:53:00,
2013-08-09 09:00:00,61.0,46.0,30.18,East,82,12.0,-999.0,57,-99.99,,,-99.99,323.600006,,2013-08-09 15:00:00,
2013-08-09 09:53:00,61.0,46.0,30.18,East,82,12.0,-999.0,57,-99.99,,,-99.99,323.600006,,2013-08-09 15:53:00,
2013-08-09 10:00:00,63.0,46.0,30.18,ENE,77,11.0,-999.0,54,-99.99,,,-99.99,477.100006,,2013-08-09 16:00:00,
2013-08-09 11:00:00,65.0,45.0,30.18,East,88,10.0,-999.0,47,-99.99,,,-99.99,599.799988,,2013-08-09 17:00:00,
2013-08-09 11:52:00,65.0,45.0,30.18,East,88,10.0,-999.0,47,-99.99,,,-99.99,599.799988,,2013-08-09 17:52:00,
2013-08-09 12:00:00,69.0,47.0,30.18,East,100,8.0,-999.0,46,-99.99,,,-99.99,692.500000,,2013-08-09 18:00:00,
2013-08-09 12:53:00,69.0,47.0,30.18,East,100,8.0,-999.0,46,-99.99,,,-99.99,692.500000,,2013-08-09 18:53:00,
2013-08-09 13:00:00,70.0,47.0,30.16,East,94,8.0,-999.0,44,-99.99,,,-99.99,712.900024,,2013-08-09 19:00:00,
2013-08-09 13:52:00,70.0,47.0,30.16,East,94,8.0,-999.0,44,-99.99,,,-99.99,712.900024,,2013-08-09 19:52:00,
2013-08-09 14:00:00,71.0,46.0,30.15,NE,56,8.0,-999.0,41,-99.99,,,-99.99,717.799988,,2013-08-09 20:00:00,
2013-08-09 14:52:00,71.0,46.0,30.15,NE,56,8.0,-999.0,41,-99.99,,,-99.99,717.799988,,2013-08-09 20:52:00,
2013-08-09 15:00:00,72.0,46.0,30.13,ENE,61,8.0,-999.0,40,-99.99,,,-99.99,637.500000,,2013-08-09 21:00:00,
2013-08-09 15:52:00,72.0,46.0,30.13,ENE,61,8.0,-999.0,40,-99.99,,,-99.99,637.500000,,2013-08-09 21:52:00,
2013-08-09 16:00:00,72.0,45.0,30.12,ENE,77,8.0,-999.0,38,-99.99,,,-99.99,603.400024,,2013-08-09 22:00:00,
2013-08-09 16:52:00,72.0,45.0,30.12,ENE,77,8.0,-999.0,38,-99.99,,,-99.99,603.400024,,2013-08-09 22:52:00,
2013-08-09 17:00:00,74.0,47.0,30.12,East,95,8.0,-999.0,38,-99.99,,,-99.99,457.500000,,2013-08-09 23:00:00,
2013-08-09 17:52:00,74.0,47.0,30.12,East,95,8.0,-999.0,38,-99.99,,,-99.99,457.500000,,2013-08-09 23:52:00,
2013-08-09 18:00:00,73.0,45.0,30.10,East,94,7.0,-999.0,37,-99.99,,,-99.99,380.000000,,2013-08-10 00:00:00,
2013-08-09 18:53:00,73.0,45.0,30.10,East,94,7.0,-999.0,37,-99.99,,,-99.99,380.000000,,2013-08-10 00:53:00,
2013-08-09 19:00:00,71.0,46.0,30.10,ENE,76,8.0,-999.0,40,-99.99,,,-99.99,209.800003,,2013-08-10 01:00:00,
2013-08-09 19:52:00,71.0,46.0,30.10,ENE,76,8.0,-999.0,40,-99.99,,,-99.99,209.800003,,2013-08-10 01:52:00,
2013-08-09 20:00:00,66.0,50.0,30.11,East,86,7.0,-999.0,57,-99.99,,,-99.99,45.830002,,2013-08-10 02:00:00,
2013-08-09 20:52:00,66.0,50.0,30.11,East,86,7.0,-999.0,57,-99.99,,,-99.99,45.830002,,2013-08-10 02:52:00,
2013-08-09 21:00:00,62.0,49.0,30.13,ESE,106,5.0,-999.0,64,-99.99,,,-99.99,2.970000,,2013-08-10 03:00:00,
2013-08-09 21:52:00,62.0,49.0,30.13,ESE,106,5.0,-999.0,64,-99.99,,,-99.99,2.970000,,2013-08-10 03:52:00,
2013-08-09 22:00:00,60.0,49.0,30.14,ESE,102,4.0,-999.0,66,-99.99,,,-99.99,0.220000,,2013-08-10 04:00:00,
2013-08-09 22:53:00,60.0,49.0,30.14,ESE,102,4.0,-999.0,66,-99.99,,,-99.99,0.220000,,2013-08-10 04:53:00,
2013-08-09 23:00:00,58.0,48.0,30.15,ESE,104,4.0,-999.0,69,-99.99,,,-99.99,0.160000,,2013-08-10 05:00:00,